Terminal Aerodrome Forecast
Issued by NWS Shreveport, LA

Home | Current Version | Previous Version | Text Only | Print | Product List | Glossary On
Versions: 1 2 3 4 5 6 7 8 9 10 11 12 13 14 15
000
FTUS44 KSHV 231730
TAFGGG
TAF
KGGG 231730Z 2318/2418 21013KT P6SM FEW025
     FM232100 20010KT P6SM VCTS BKN035CB
     FM240000 15006KT P6SM BKN250
     FM240600 16004KT P6SM VCTS OVC020CB
      TEMPO 2408/2412 20003KT 3SM -TSRA OVC020CB
     FM241200 03006KT 5SM -TSRA OVC020CB
     FM241600 04006KT 6SM -RA OVC015=

USA.gov is the U.S. government's official web portal to all federal, state and local government web resources and services.